createdAt,value
2019-05-01T00:01:44.993Z,8.83
2019-05-01T00:04:28.954Z,8.84
2019-05-01T00:07:00.274Z,8.83
2019-05-01T00:09:29.682Z,8.83
2019-05-01T00:11:59.330Z,8.79
2019-05-01T00:14:29.068Z,8.74
2019-05-01T00:17:01.784Z,8.66
2019-05-01T00:19:31.258Z,8.67
2019-05-01T00:22:00.761Z,8.60
2019-05-01T00:24:30.221Z,8.50
2019-05-01T00:26:59.821Z,8.45
2019-05-01T00:29:29.460Z,8.42
2019-05-01T00:31:58.964Z,8.40
2019-05-01T00:34:28.365Z,8.50
2019-05-01T00:36:57.813Z,8.51
2019-05-01T00:39:27.205Z,8.42
2019-05-01T00:41:56.647Z,8.54
2019-05-01T00:44:26.067Z,8.51
2019-05-01T00:46:55.506Z,8.50
2019-05-01T00:49:24.989Z,8.59
2019-05-01T00:51:54.460Z,8.57
2019-05-01T00:54:23.854Z,8.64
2019-05-01T00:57:00.794Z,8.68
2019-05-01T00:59:31.830Z,8.61
2019-05-01T01:02:08.672Z,8.60
2019-05-01T01:04:38.542Z,8.59
2019-05-01T01:07:08.191Z,8.61
2019-05-01T01:09:37.647Z,8.54
2019-05-01T01:12:07.335Z,8.45
2019-05-01T01:14:36.856Z,8.49
2019-05-01T01:17:06.283Z,8.50
2019-05-01T01:19:35.728Z,8.44
2019-05-01T01:22:05.208Z,8.48
2019-05-01T01:24:34.670Z,8.45
2019-05-01T01:27:04.410Z,8.46
2019-05-01T01:29:34.472Z,8.45
2019-05-01T01:32:04.410Z,8.46
2019-05-01T01:34:34.193Z,8.52
2019-05-01T01:37:03.760Z,8.50
2019-05-01T01:39:33.364Z,8.44
2019-05-01T01:42:02.920Z,8.46
2019-05-01T01:44:35.738Z,8.48
2019-05-01T01:47:06.714Z,8.55
2019-05-01T01:49:36.293Z,8.49
2019-05-01T01:52:06.056Z,8.57
2019-05-01T01:54:35.679Z,8.62
2019-05-01T01:57:05.174Z,8.57
2019-05-01T01:59:34.788Z,8.55
2019-05-01T02:02:09.022Z,8.55
2019-05-01T02:07:30.653Z,8.61
2019-05-01T02:10:00.922Z,8.60
2019-05-01T02:12:30.803Z,8.54
2019-05-01T02:15:00.271Z,8.50
2019-05-01T02:17:29.810Z,8.45
2019-05-01T02:19:59.201Z,8.42
2019-05-01T02:22:28.779Z,8.48
2019-05-01T02:24:58.181Z,8.41
2019-05-01T02:27:31.006Z,8.35
2019-05-01T02:30:02.859Z,8.34
2019-05-01T02:32:35.209Z,8.29
2019-05-01T02:35:06.780Z,8.27
2019-05-01T02:37:38.639Z,8.17
2019-05-01T02:40:37.353Z,8.25
2019-05-01T02:43:11.543Z,8.27
2019-05-01T02:45:44.725Z,8.25
2019-05-01T02:48:17.540Z,8.33
2019-05-01T02:50:50.427Z,8.27
2019-05-01T02:53:22.508Z,8.31
2019-05-01T02:56:12.161Z,8.30
2019-05-01T02:58:45.086Z,8.33
2019-05-01T03:01:15.273Z,8.22
2019-05-01T03:03:45.606Z,8.28
2019-05-01T03:06:15.612Z,8.17
2019-05-01T03:08:48.429Z,8.19
2019-05-01T03:11:17.956Z,8.18
2019-05-01T03:13:49.824Z,8.15
2019-05-01T03:16:21.075Z,8.23
2019-05-01T03:18:52.398Z,8.19
2019-05-01T03:21:23.620Z,8.33
2019-05-01T03:23:54.989Z,8.31
2019-05-01T03:26:24.668Z,8.32
2019-05-01T03:28:54.745Z,8.36
2019-05-01T03:31:25.876Z,8.36
2019-05-01T03:33:55.382Z,8.40
2019-05-01T03:36:25.260Z,8.51
2019-05-01T03:38:55.135Z,8.39
2019-05-01T03:41:24.843Z,8.37
2019-05-01T03:43:54.350Z,8.49
2019-05-01T03:46:24.222Z,8.50
2019-05-01T03:48:53.659Z,8.35
2019-05-01T03:51:23.699Z,8.47
2019-05-01T03:53:53.609Z,8.44
2019-05-01T03:56:24.657Z,8.32
2019-05-01T03:58:54.649Z,8.34
2019-05-01T04:01:26.962Z,8.26
2019-05-01T04:04:02.186Z,8.31
2019-05-01T04:06:32.563Z,8.38
2019-05-01T04:09:02.075Z,8.37
2019-05-01T04:11:31.663Z,8.38
2019-05-01T04:14:02.061Z,8.34
2019-05-01T04:16:33.108Z,8.40
2019-05-01T04:19:04.540Z,8.37
2019-05-01T04:21:36.059Z,8.44
2019-05-01T04:24:05.722Z,8.41
2019-05-01T04:26:35.264Z,8.31
2019-05-01T04:29:15.628Z,8.23
2019-05-01T04:31:52.971Z,8.31
2019-05-01T04:34:24.197Z,8.32
2019-05-01T04:37:01.449Z,8.23
2019-05-01T04:39:31.244Z,8.29
2019-05-01T04:42:00.802Z,8.26
2019-05-01T04:44:30.570Z,8.37
2019-05-01T04:47:00.709Z,8.42
2019-05-01T04:49:30.329Z,8.31
2019-05-01T04:52:00.053Z,8.35
2019-05-01T04:54:29.561Z,8.32
2019-05-01T04:56:59.426Z,8.33
2019-05-01T04:59:28.854Z,8.49
2019-05-01T05:02:03.096Z,8.56
2019-05-01T05:04:33.465Z,8.57
2019-05-01T05:07:04.178Z,8.56
2019-05-01T05:09:38.668Z,8.60
2019-05-01T05:12:11.405Z,8.73
2019-05-01T05:14:44.174Z,8.73
2019-05-01T05:20:07.904Z,8.68
2019-05-01T05:22:37.583Z,8.59
2019-05-01T05:25:07.264Z,8.57
2019-05-01T05:27:37.526Z,8.76
2019-05-01T05:30:07.191Z,8.76
2019-05-01T05:32:38.098Z,8.91
2019-05-01T05:35:09.547Z,8.90
2019-05-01T05:37:55.523Z,8.92
2019-05-01T05:40:28.298Z,9.00
2019-05-01T05:42:58.474Z,9.01
2019-05-01T05:45:27.968Z,9.02
2019-05-01T05:47:57.543Z,8.92
2019-05-01T05:50:37.050Z,9.00
2019-05-01T05:53:19.416Z,8.91
2019-05-01T05:55:59.127Z,9.12
2019-05-01T05:58:31.931Z,8.89
2019-05-01T06:01:09.056Z,8.83
2019-05-01T06:04:00.052Z,8.95
2019-05-01T06:06:32.884Z,8.94
2019-05-01T06:09:09.088Z,8.99
2019-05-01T06:11:57.767Z,8.90
2019-05-01T06:14:43.378Z,9.04
2019-05-01T06:17:14.711Z,8.96
2019-05-01T06:19:56.376Z,8.89
2019-05-01T06:22:28.376Z,8.75
2019-05-01T06:25:00.061Z,8.74
2019-05-01T06:27:30.098Z,8.68
2019-05-01T06:30:00.970Z,8.73
2019-05-01T06:32:33.532Z,8.95
2019-05-01T06:35:03.144Z,8.96
2019-05-01T06:38:02.746Z,8.93
2019-05-01T06:40:44.034Z,8.96
2019-05-01T06:43:30.490Z,8.81
2019-05-01T06:46:08.206Z,8.95
2019-05-01T06:48:39.354Z,8.85
2019-05-01T06:51:27.059Z,8.82
2019-05-01T06:53:57.650Z,8.94
2019-05-01T06:56:27.424Z,9.17
2019-05-01T06:59:00.438Z,9.12
2019-05-01T07:01:30.124Z,9.23
2019-05-01T07:04:03.978Z,9.41
2019-05-01T07:06:32.980Z,9.47
2019-05-01T07:09:06.988Z,9.40
2019-05-01T07:11:34.632Z,9.50
2019-05-01T07:14:04.543Z,9.47
2019-05-01T07:16:38.085Z,9.44
2019-05-01T07:19:08.476Z,9.66
2019-05-01T07:21:38.351Z,9.54
2019-05-01T07:24:07.990Z,9.62
2019-05-01T07:26:37.454Z,9.74
2019-05-01T07:29:09.957Z,9.72
2019-05-01T07:31:40.176Z,9.73
2019-05-01T07:34:16.334Z,9.71
2019-05-01T07:36:45.600Z,9.62
2019-05-01T07:39:14.671Z,9.50
2019-05-01T07:41:44.730Z,9.59
2019-05-01T07:44:22.441Z,9.53
2019-05-01T07:47:05.702Z,9.69
2019-05-01T07:49:57.122Z,9.72
2019-05-01T07:52:27.996Z,9.67
2019-05-01T07:54:58.032Z,9.74
2019-05-01T07:57:28.277Z,9.75
2019-05-01T08:00:03.664Z,9.81
2019-05-01T08:02:33.042Z,9.75
2019-05-01T08:05:04.937Z,9.88
2019-05-01T08:07:34.828Z,10.00
2019-05-01T08:10:08.610Z,9.92
2019-05-01T08:12:38.119Z,9.93
2019-05-01T08:15:08.016Z,10.03
2019-05-01T08:17:39.097Z,10.29
2019-05-01T08:20:14.934Z,10.32
2019-05-01T08:22:44.895Z,10.21
2019-05-01T08:25:14.355Z,10.31
2019-05-01T08:27:50.962Z,10.11
2019-05-01T08:30:34.428Z,10.09
2019-05-01T08:33:05.582Z,10.15
2019-05-01T08:35:36.507Z,10.10
2019-05-01T08:38:06.358Z,10.16
2019-05-01T08:40:37.313Z,10.19
2019-05-01T08:43:06.987Z,10.16
2019-05-01T08:45:42.530Z,10.14
2019-05-01T08:48:30.749Z,10.19
2019-05-01T08:51:01.655Z,10.38
2019-05-01T08:53:31.344Z,10.31
2019-05-01T08:56:00.969Z,10.03
2019-05-01T08:58:30.418Z,10.34
2019-05-01T09:00:59.975Z,10.46
2019-05-01T09:03:29.467Z,10.25
2019-05-01T09:05:59.405Z,10.18
2019-05-01T09:08:31.962Z,10.33
2019-05-01T09:11:02.091Z,10.50
2019-05-01T09:13:31.171Z,10.85
2019-05-01T09:16:00.797Z,11.05
2019-05-01T09:18:30.202Z,10.85
2019-05-01T09:21:01.171Z,11.04
2019-05-01T09:23:34.152Z,10.70
2019-05-01T09:26:20.478Z,10.94
2019-05-01T09:29:11.029Z,11.02
2019-05-01T09:31:39.534Z,10.98
2019-05-01T09:34:09.554Z,11.29
2019-05-01T09:36:39.150Z,11.38
2019-05-01T09:39:10.506Z,11.51
2019-05-01T09:41:43.070Z,11.21
2019-05-01T09:44:12.138Z,11.31
2019-05-01T09:46:41.909Z,11.42
2019-05-01T09:49:14.332Z,11.51
2019-05-01T09:51:47.667Z,11.46
2019-05-01T09:54:19.629Z,11.46
2019-05-01T09:56:49.441Z,11.54
2019-05-01T09:59:19.233Z,11.46
2019-05-01T10:01:48.728Z,11.41
2019-05-01T10:04:18.175Z,11.49
2019-05-01T10:06:52.123Z,11.23
2019-05-01T10:09:18.786Z,11.24
2019-05-01T10:11:49.749Z,11.53
2019-05-01T10:14:19.562Z,11.63
2019-05-01T10:16:49.012Z,11.87
2019-05-01T10:19:18.567Z,11.90
2019-05-01T10:21:47.977Z,12.05
2019-05-01T10:24:17.465Z,12.00
2019-05-01T10:26:48.553Z,11.93
2019-05-01T10:29:27.636Z,11.95
2019-05-01T10:32:05.105Z,11.99
2019-05-01T10:37:18.148Z,12.20
2019-05-01T10:39:50.132Z,12.01
2019-05-01T10:42:19.122Z,12.24
2019-05-01T10:44:48.595Z,11.96
2019-05-01T10:47:18.041Z,12.46
2019-05-01T10:49:47.507Z,12.42
2019-05-01T10:52:18.676Z,12.32
2019-05-01T10:54:48.099Z,12.51
2019-05-01T10:57:17.705Z,12.43
2019-05-01T10:59:47.129Z,12.26
2019-05-01T11:02:18.196Z,12.29
2019-05-01T11:04:47.610Z,12.44
2019-05-01T11:07:19.917Z,12.96
2019-05-01T11:09:49.321Z,12.61
2019-05-01T11:12:18.940Z,12.98
2019-05-01T11:14:48.339Z,13.18
2019-05-01T11:17:20.295Z,13.01
2019-05-01T11:19:49.699Z,12.99
2019-05-01T11:22:19.289Z,12.79
2019-05-01T11:24:48.693Z,12.86
2019-05-01T11:27:18.135Z,12.63
2019-05-01T11:29:47.535Z,12.81
2019-05-01T11:32:30.946Z,12.91
2019-05-01T11:35:07.539Z,12.92
2019-05-01T11:37:41.663Z,12.86
2019-05-01T11:40:19.818Z,12.52
2019-05-01T11:42:49.276Z,12.20
2019-05-01T11:45:19.434Z,12.24
2019-05-01T11:47:49.046Z,12.80
2019-05-01T11:50:18.460Z,12.26
2019-05-01T11:52:47.939Z,12.19
2019-05-01T11:55:17.484Z,11.76
2019-05-01T11:57:46.924Z,12.21
2019-05-01T12:00:17.874Z,12.29
2019-05-01T12:02:47.367Z,12.53
2019-05-01T12:05:16.859Z,12.29
2019-05-01T12:07:46.375Z,12.04
2019-05-01T12:10:16.425Z,12.39
2019-05-01T12:12:45.851Z,12.58
2019-05-01T12:15:17.467Z,12.36
2019-05-01T12:17:48.293Z,12.81
2019-05-01T12:20:19.125Z,13.09
2019-05-01T12:22:51.374Z,13.50
2019-05-01T12:25:20.179Z,13.44
2019-05-01T12:27:49.675Z,13.47
2019-05-01T12:30:19.755Z,13.83
2019-05-01T12:32:49.212Z,14.02
2019-05-01T12:35:18.619Z,14.17
2019-05-01T12:37:48.061Z,14.62
2019-05-01T12:40:18.680Z,14.81
2019-05-01T12:42:48.322Z,14.69
2019-05-01T12:45:18.459Z,13.97
2019-05-01T12:47:50.860Z,14.20
2019-05-01T12:50:22.929Z,14.07
2019-05-01T12:52:59.921Z,13.83
2019-05-01T12:55:31.032Z,14.03
2019-05-01T12:58:00.467Z,13.93
2019-05-01T13:00:41.957Z,13.58
2019-05-01T13:03:12.943Z,13.56
2019-05-01T13:05:43.267Z,13.19
2019-05-01T13:08:12.976Z,13.52
2019-05-01T13:10:43.919Z,13.38
2019-05-01T13:13:13.501Z,13.95
2019-05-01T13:15:42.939Z,14.20
2019-05-01T13:18:12.378Z,14.48
2019-05-01T13:20:41.833Z,13.93
2019-05-01T13:23:11.268Z,14.12
2019-05-01T13:25:40.780Z,14.29
2019-05-01T13:28:14.828Z,13.46
2019-05-01T13:31:01.396Z,13.70
2019-05-01T13:33:31.045Z,14.02
2019-05-01T13:36:02.028Z,13.52
2019-05-01T13:38:31.601Z,13.58
2019-05-01T13:41:01.004Z,13.49
2019-05-01T13:43:30.597Z,13.79
2019-05-01T13:46:00.343Z,14.24
2019-05-01T13:48:29.749Z,13.86
2019-05-01T13:50:59.193Z,14.24
2019-05-01T13:53:28.602Z,14.35
2019-05-01T13:55:58.033Z,14.46
2019-05-01T13:58:27.427Z,14.52
2019-05-01T14:00:56.872Z,14.11
2019-05-01T14:03:26.338Z,14.24
2019-05-01T14:05:55.784Z,14.14
2019-05-01T14:08:25.191Z,14.07
2019-05-01T14:10:54.621Z,13.61
2019-05-01T14:13:24.019Z,13.77
2019-05-01T14:15:53.474Z,13.65
2019-05-01T14:18:22.872Z,13.03
2019-05-01T14:21:03.693Z,13.10
2019-05-01T14:23:34.735Z,13.20
2019-05-01T14:26:07.119Z,13.11
2019-05-01T14:28:38.157Z,13.21
2019-05-01T14:31:08.717Z,13.16
2019-05-01T14:33:38.194Z,13.40
2019-05-01T14:36:07.823Z,13.45
2019-05-01T14:38:37.249Z,12.99
2019-05-01T14:41:06.821Z,13.02
2019-05-01T14:43:36.336Z,12.76
2019-05-01T14:46:05.974Z,12.77
2019-05-01T14:48:35.416Z,12.76
2019-05-01T14:51:05.093Z,12.75
2019-05-01T14:53:34.593Z,12.28
2019-05-01T14:56:04.355Z,12.55
2019-05-01T14:58:33.867Z,12.58
2019-05-01T15:01:03.627Z,12.60
2019-05-01T15:03:33.340Z,12.62
2019-05-01T15:06:02.888Z,12.81
2019-05-01T15:08:32.354Z,12.57
2019-05-01T15:11:01.905Z,12.37
2019-05-01T15:13:36.134Z,12.58
2019-05-01T15:16:10.306Z,12.42
2019-05-01T15:18:44.321Z,12.34
2019-05-01T15:21:13.799Z,12.55
2019-05-01T15:23:53.320Z,12.39
2019-05-01T15:26:16.038Z,12.55
2019-05-01T15:28:45.482Z,12.33
2019-05-01T15:31:14.882Z,12.38
2019-05-01T15:33:44.409Z,12.55
2019-05-01T15:36:14.099Z,12.44
2019-05-01T15:38:43.531Z,12.44
2019-05-01T15:41:30.829Z,12.57
2019-05-01T15:44:04.641Z,12.20
2019-05-01T15:46:35.836Z,12.30
2019-05-01T15:49:05.349Z,12.35
2019-05-01T15:51:34.748Z,12.37
2019-05-01T15:54:05.821Z,12.36
2019-05-01T15:56:35.259Z,12.26
2019-05-01T15:59:04.874Z,12.38
2019-05-01T16:01:34.371Z,12.30
2019-05-01T16:04:04.262Z,12.28
2019-05-01T16:06:33.754Z,12.18
2019-05-01T16:09:05.342Z,12.20
2019-05-01T16:11:52.620Z,11.92
2019-05-01T16:14:22.123Z,11.72
2019-05-01T16:16:51.604Z,11.84
2019-05-01T16:19:21.053Z,11.51
2019-05-01T16:21:50.620Z,11.40
2019-05-01T16:24:20.062Z,11.57
2019-05-01T16:26:49.480Z,11.71
2019-05-01T16:29:18.917Z,11.55
2019-05-01T16:31:48.315Z,11.70
2019-05-01T16:34:17.766Z,11.79
2019-05-01T16:36:47.250Z,11.78
2019-05-01T16:39:27.417Z,11.71
2019-05-01T16:41:56.821Z,11.39
2019-05-01T16:44:26.343Z,11.54
2019-05-01T16:46:55.742Z,11.40
2019-05-01T16:49:25.199Z,11.31
2019-05-01T16:51:54.603Z,11.37
2019-05-01T16:54:24.129Z,11.40
2019-05-01T16:56:53.529Z,11.06
2019-05-01T16:59:22.961Z,11.10
2019-05-01T17:02:10.039Z,10.89
2019-05-01T17:04:43.848Z,10.82
2019-05-01T17:07:21.181Z,10.76
2019-05-01T17:09:57.994Z,10.92
2019-05-01T17:12:29.404Z,10.82
2019-05-01T17:14:58.799Z,10.88
2019-05-01T17:17:28.422Z,10.77
2019-05-01T17:19:58.062Z,10.70
2019-05-01T17:22:27.603Z,10.60
2019-05-01T17:24:57.081Z,10.51
2019-05-01T17:27:26.510Z,10.51
2019-05-01T17:29:56.088Z,10.32
2019-05-01T17:32:25.589Z,10.25
2019-05-01T17:34:54.994Z,10.29
2019-05-01T17:37:24.547Z,10.28
2019-05-01T17:39:53.961Z,10.22
2019-05-01T17:42:23.451Z,10.24
2019-05-01T17:44:55.872Z,10.13
2019-05-01T17:47:26.808Z,10.09
2019-05-01T17:49:57.129Z,10.13
2019-05-01T17:52:26.564Z,10.06
2019-05-01T17:54:56.023Z,9.97
2019-05-01T17:57:25.563Z,9.93
2019-05-01T17:59:56.660Z,10.00
2019-05-01T18:02:27.736Z,9.91
2019-05-01T18:05:17.209Z,9.89
2019-05-01T18:07:47.925Z,9.94
2019-05-01T18:10:17.401Z,9.78
2019-05-01T18:12:48.420Z,9.91
2019-05-01T18:15:17.903Z,9.60
2019-05-01T18:17:48.925Z,9.64
2019-05-01T18:20:18.420Z,9.63
2019-05-01T18:22:52.188Z,9.53
2019-05-01T18:25:23.320Z,9.48
2019-05-01T18:28:03.795Z,9.54
2019-05-01T18:30:38.159Z,9.46
2019-05-01T18:33:08.110Z,9.48
2019-05-01T18:35:37.567Z,9.41
2019-05-01T18:38:14.663Z,9.41
2019-05-01T18:41:05.904Z,9.40
2019-05-01T18:43:35.474Z,9.41
2019-05-01T18:46:08.175Z,9.48
2019-05-01T18:48:37.774Z,9.48
2019-05-01T18:51:07.660Z,9.54
2019-05-01T18:53:37.155Z,9.38
2019-05-01T18:56:07.038Z,9.42
2019-05-01T18:58:36.531Z,9.36
2019-05-01T19:01:09.369Z,9.43
2019-05-01T19:03:42.136Z,9.36
2019-05-01T19:06:08.644Z,9.45
2019-05-01T19:08:38.242Z,9.35
2019-05-01T19:11:12.804Z,9.41
2019-05-01T19:13:41.483Z,9.31
2019-05-01T19:16:12.089Z,9.29
2019-05-01T19:18:41.786Z,9.39
2019-05-01T19:21:13.061Z,9.34
2019-05-01T19:23:42.659Z,9.40
2019-05-01T19:26:13.783Z,9.35
2019-05-01T19:28:43.515Z,9.35
2019-05-01T19:31:13.267Z,9.37
2019-05-01T19:33:42.708Z,9.34
2019-05-01T19:36:12.336Z,9.37
2019-05-01T19:38:41.850Z,9.30
2019-05-01T19:41:14.117Z,9.29
2019-05-01T19:43:42.804Z,9.27
2019-05-01T19:46:12.412Z,9.33
2019-05-01T19:48:45.500Z,9.34
2019-05-01T19:51:12.987Z,9.37
2019-05-01T19:53:46.447Z,9.32
2019-05-01T19:56:16.587Z,9.26
2019-05-01T19:58:47.033Z,9.24
2019-05-01T20:01:16.689Z,9.28
2019-05-01T20:03:46.100Z,9.24
2019-05-01T20:06:15.545Z,9.23
2019-05-01T20:08:45.037Z,9.22
2019-05-01T20:11:17.638Z,9.28
2019-05-01T20:13:47.052Z,9.30
2019-05-01T20:16:17.241Z,9.21
2019-05-01T20:18:46.943Z,9.28
2019-05-01T20:21:16.472Z,9.33
2019-05-01T20:23:45.894Z,9.35
2019-05-01T20:26:15.340Z,9.34
2019-05-01T20:28:44.756Z,9.30
2019-05-01T20:31:14.277Z,9.26
2019-05-01T20:33:44.433Z,9.23
2019-05-01T20:36:15.596Z,9.24
2019-05-01T20:38:46.175Z,9.32
2019-05-01T20:41:17.878Z,9.31
2019-05-01T20:43:47.715Z,9.24
2019-05-01T20:46:21.371Z,9.20
2019-05-01T20:48:48.349Z,9.18
2019-05-01T20:51:20.138Z,9.18
2019-05-01T20:53:49.739Z,9.11
2019-05-01T20:56:23.522Z,9.19
2019-05-01T20:58:52.964Z,9.24
2019-05-01T21:01:24.347Z,9.26
2019-05-01T21:03:56.181Z,9.30
2019-05-01T21:06:28.575Z,9.29
2019-05-01T21:09:13.720Z,9.22
2019-05-01T21:11:47.420Z,9.25
2019-05-01T21:14:22.733Z,9.22
2019-05-01T21:16:49.324Z,9.24
2019-05-01T21:19:40.333Z,9.20
2019-05-01T21:22:11.127Z,9.19
2019-05-01T21:24:40.522Z,9.26
2019-05-01T21:27:11.063Z,9.22
2019-05-01T21:29:40.556Z,9.31
2019-05-01T21:32:11.044Z,9.22
2019-05-01T21:34:40.447Z,9.11
2019-05-01T21:37:09.875Z,9.14
2019-05-01T21:39:39.329Z,9.19
2019-05-01T21:42:11.794Z,9.22
2019-05-01T21:44:40.237Z,9.24
2019-05-01T21:47:09.679Z,9.28
2019-05-01T21:49:39.134Z,9.30
2019-05-01T21:52:08.589Z,9.27
2019-05-01T21:54:38.037Z,9.29
2019-05-01T21:57:07.540Z,9.22
2019-05-01T21:59:39.683Z,9.29
2019-05-01T22:02:10.120Z,9.31
2019-05-01T22:04:39.763Z,9.32
2019-05-01T22:07:09.377Z,9.28
2019-05-01T22:09:40.004Z,9.21
2019-05-01T22:12:13.117Z,9.22
2019-05-01T22:14:43.357Z,9.14
2019-05-01T22:17:14.404Z,9.16
2019-05-01T22:19:44.240Z,9.21
2019-05-01T22:22:33.402Z,9.21
2019-05-01T22:25:04.608Z,9.16
2019-05-01T22:27:38.691Z,9.26
2019-05-01T22:30:26.825Z,9.17
2019-05-01T22:32:57.942Z,9.07
2019-05-01T22:35:30.591Z,9.17
2019-05-01T22:38:00.008Z,9.15
2019-05-01T22:40:31.286Z,9.11
2019-05-01T22:43:00.688Z,9.14
2019-05-01T22:45:30.137Z,9.18
2019-05-01T22:47:59.669Z,9.15
2019-05-01T22:50:29.171Z,9.13
2019-05-01T22:52:58.576Z,9.14
2019-05-01T22:55:28.018Z,9.06
2019-05-01T22:57:57.424Z,9.01
2019-05-01T23:00:42.972Z,9.08
2019-05-01T23:03:15.208Z,9.07
2019-05-01T23:05:44.656Z,9.11
2019-05-01T23:08:14.061Z,9.15
2019-05-01T23:10:46.948Z,9.13
2019-05-01T23:13:14.615Z,9.18
2019-05-01T23:15:44.306Z,9.04
2019-05-01T23:18:15.428Z,9.01
2019-05-01T23:20:45.310Z,8.99
2019-05-01T23:23:14.717Z,8.98
2019-05-01T23:25:44.231Z,8.98
2019-05-01T23:28:13.731Z,9.01
2019-05-01T23:30:43.227Z,8.99
2019-05-01T23:33:12.631Z,8.95
2019-05-01T23:35:42.092Z,9.01
2019-05-01T23:38:11.551Z,8.97
2019-05-01T23:40:41.102Z,8.95
2019-05-01T23:43:10.492Z,8.97
2019-05-01T23:45:39.929Z,8.97
2019-05-01T23:48:09.468Z,9.01
2019-05-01T23:50:38.908Z,9.06
2019-05-01T23:53:09.158Z,9.07
2019-05-01T23:55:41.081Z,9.02
2019-05-01T23:58:10.648Z,9.05
